createdAt,value
2023-02-15T00:04:47.116Z,100.00
2023-02-15T00:09:51.496Z,100.00
2023-02-15T00:14:54.237Z,100.00
2023-02-15T00:19:58.476Z,100.00
2023-02-15T00:25:01.211Z,100.00
2023-02-15T00:30:04.115Z,100.00
2023-02-15T00:35:10.164Z,100.00
2023-02-15T00:40:13.505Z,100.00
2023-02-15T00:45:17.397Z,100.00
2023-02-15T00:50:23.964Z,100.00
2023-02-15T00:55:26.878Z,100.00
2023-02-15T01:00:29.681Z,100.00
2023-02-15T01:05:34.858Z,100.00
2023-02-15T01:10:38.062Z,100.00
2023-02-15T01:15:43.654Z,100.00
2023-02-15T01:20:48.575Z,100.00
2023-02-15T01:25:51.652Z,100.00
2023-02-15T01:30:54.629Z,100.00
2023-02-15T01:36:02.125Z,100.00
2023-02-15T01:41:24.877Z,100.00
2023-02-15T01:46:33.151Z,100.00
2023-02-15T01:51:42.504Z,100.00
2023-02-15T01:56:45.493Z,100.00
2023-02-15T02:01:48.640Z,100.00
2023-02-15T02:06:53.570Z,100.00
2023-02-15T02:11:56.482Z,100.00
2023-02-15T02:17:08.064Z,100.00
2023-02-15T02:22:44.708Z,100.00
2023-02-15T02:27:52.998Z,100.00
2023-02-15T02:33:15.634Z,100.00
2023-02-15T02:38:26.539Z,100.00
2023-02-15T02:43:35.915Z,100.00
2023-02-15T02:48:40.861Z,100.00
2023-02-15T02:53:43.678Z,100.00
2023-02-15T02:58:53.680Z,100.00
2023-02-15T03:04:02.104Z,100.00
2023-02-15T03:09:08.730Z,100.00
2023-02-15T03:14:12.935Z,100.00
2023-02-15T03:19:20.082Z,100.00
2023-02-15T03:24:27.353Z,100.00
2023-02-15T03:29:31.453Z,100.00
2023-02-15T03:34:35.904Z,100.00
2023-02-15T03:39:42.121Z,100.00
2023-02-15T03:44:53.539Z,100.00
2023-02-15T03:50:03.024Z,100.00
2023-02-15T03:55:06.399Z,100.00
2023-02-15T04:00:32.540Z,100.00
2023-02-15T04:05:36.689Z,100.00
2023-02-15T04:10:54.388Z,100.00
2023-02-15T04:16:07.714Z,100.00
2023-02-15T04:21:31.764Z,100.00
2023-02-15T04:26:34.527Z,100.00
2023-02-15T04:31:37.437Z,100.00
2023-02-15T04:36:42.258Z,100.00
2023-02-15T04:41:45.395Z,100.00
2023-02-15T04:46:48.162Z,100.00
2023-02-15T04:51:52.293Z,100.00
2023-02-15T04:56:55.105Z,100.00
2023-02-15T05:01:57.926Z,100.00
2023-02-15T05:07:02.052Z,100.00
2023-02-15T05:12:04.998Z,100.00
2023-02-15T05:17:08.323Z,100.00
2023-02-15T05:22:12.485Z,100.00
2023-02-15T05:27:32.639Z,100.00
2023-02-15T05:32:35.530Z,100.00
2023-02-15T05:37:39.780Z,100.00
2023-02-15T05:42:42.556Z,99.79
2023-02-15T05:47:45.359Z,100.00
2023-02-15T05:52:51.326Z,100.00
2023-02-15T05:57:55.206Z,99.52
2023-02-15T06:02:58.045Z,99.80
2023-02-15T06:08:02.976Z,100.00
2023-02-15T06:13:06.838Z,100.00
2023-02-15T06:18:09.630Z,100.00
2023-02-15T06:23:13.820Z,100.00
2023-02-15T06:28:16.768Z,100.00
2023-02-15T06:33:19.660Z,100.00
2023-02-15T06:38:23.844Z,100.00
2023-02-15T06:43:26.725Z,100.00
2023-02-15T06:48:29.612Z,100.00
2023-02-15T06:53:33.767Z,100.00
2023-02-15T06:58:36.556Z,100.00
2023-02-15T07:03:39.310Z,100.00
2023-02-15T07:08:43.525Z,100.00
2023-02-15T07:13:46.544Z,100.00
2023-02-15T07:18:49.732Z,98.68
2023-02-15T07:23:58.499Z,99.63
2023-02-15T07:29:01.728Z,98.75
2023-02-15T07:34:04.545Z,97.17
2023-02-15T07:39:08.621Z,97.05
2023-02-15T07:44:13.453Z,100.00
2023-02-15T07:49:16.651Z,100.00
2023-02-15T07:54:21.087Z,100.00
2023-02-15T07:59:25.010Z,100.00
2023-02-15T08:04:27.730Z,99.31
2023-02-15T08:09:31.925Z,96.47
2023-02-15T08:14:34.879Z,97.83
2023-02-15T08:19:37.914Z,96.36
2023-02-15T08:24:43.026Z,96.20
2023-02-15T08:29:45.804Z,96.48
2023-02-15T08:55:11.800Z,98.25
2023-02-15T09:00:16.122Z,96.31
2023-02-15T09:05:18.844Z,93.21
2023-02-15T09:10:23.039Z,92.13
2023-02-15T09:15:25.826Z,91.85
2023-02-15T09:20:29.367Z,90.81
2023-02-15T09:25:33.419Z,90.53
2023-02-15T09:30:36.380Z,91.10
2023-02-15T09:35:39.185Z,87.39
2023-02-15T09:40:58.755Z,88.98
2023-02-15T09:46:14.870Z,89.11
2023-02-15T09:51:34.458Z,87.13
2023-02-15T09:56:46.460Z,88.18
2023-02-15T10:02:05.914Z,84.65
2023-02-15T10:07:27.793Z,82.13
2023-02-15T10:13:09.117Z,82.13
2023-02-15T10:18:41.285Z,82.77
2023-02-15T10:24:07.416Z,80.90
2023-02-15T10:29:23.736Z,80.07
2023-02-15T10:34:39.270Z,79.67
2023-02-15T10:40:04.297Z,79.08
2023-02-15T10:45:25.616Z,76.18
2023-02-15T10:50:50.664Z,77.28
2023-02-15T10:56:03.647Z,74.71
2023-02-15T11:01:23.915Z,77.66
2023-02-15T11:06:33.510Z,76.25
2023-02-15T11:11:52.276Z,73.87
2023-02-15T11:16:59.502Z,74.17
2023-02-15T11:22:29.073Z,74.57
2023-02-15T11:27:51.304Z,80.04
2023-02-15T11:33:03.952Z,76.83
2023-02-15T11:38:22.605Z,77.04
2023-02-15T11:43:33.300Z,80.52
2023-02-15T11:48:39.642Z,82.95
2023-02-15T11:53:46.683Z,83.28
2023-02-15T11:59:03.103Z,84.23
2023-02-15T12:04:17.015Z,82.97
2023-02-15T12:09:31.275Z,82.69
2023-02-15T12:14:50.084Z,84.03
2023-02-15T12:19:57.120Z,83.84
2023-02-15T12:25:02.626Z,83.13
2023-02-15T12:30:09.457Z,82.60
2023-02-15T12:35:21.760Z,81.38
2023-02-15T12:40:30.933Z,80.87
2023-02-15T12:45:35.719Z,79.70
2023-02-15T12:50:41.215Z,78.98
2023-02-15T12:55:53.958Z,81.20
2023-02-15T13:01:14.565Z,80.38
2023-02-15T13:06:20.286Z,80.05
2023-02-15T13:11:26.733Z,77.42
2023-02-15T13:16:34.505Z,75.04
2023-02-15T13:21:41.881Z,73.48
2023-02-15T13:26:46.519Z,78.90
2023-02-15T13:31:51.938Z,78.31
2023-02-15T13:37:09.189Z,79.91
2023-02-15T13:42:23.157Z,79.28
2023-02-15T13:47:31.075Z,80.91
2023-02-15T13:52:42.623Z,81.41
2023-02-15T13:58:05.893Z,81.72
2023-02-15T14:03:45.793Z,80.85
2023-02-15T14:09:03.370Z,80.80
2023-02-15T14:14:34.007Z,79.89
2023-02-15T14:19:42.300Z,79.81
2023-02-15T14:24:55.679Z,80.13
2023-02-15T14:30:01.372Z,80.55
2023-02-15T14:35:05.800Z,81.75
2023-02-15T14:40:36.722Z,83.34
2023-02-15T14:45:45.102Z,83.13
2023-02-15T14:50:48.852Z,81.21
2023-02-15T14:56:19.509Z,81.69
2023-02-15T15:01:28.218Z,79.98
2023-02-15T15:06:33.760Z,81.98
2023-02-15T15:11:48.747Z,79.52
2023-02-15T15:16:53.343Z,79.74
2023-02-15T15:21:58.691Z,79.98
2023-02-15T15:27:34.758Z,80.69
2023-02-15T15:32:46.042Z,80.92
2023-02-15T15:38:29.600Z,83.61
2023-02-15T15:43:45.632Z,85.14
2023-02-15T15:48:50.056Z,86.06
2023-02-15T15:53:55.699Z,85.03
2023-02-15T15:59:02.385Z,86.02
2023-02-15T16:04:06.955Z,84.97
2023-02-15T16:09:20.878Z,87.57
2023-02-15T16:14:33.759Z,88.19
2023-02-15T16:19:43.128Z,90.41
2023-02-15T16:25:05.223Z,93.37
2023-02-15T16:30:27.584Z,95.89
2023-02-15T16:35:33.379Z,95.50
2023-02-15T16:40:53.722Z,95.31
2023-02-15T16:46:05.379Z,96.28
2023-02-15T16:51:10.851Z,97.79
2023-02-15T16:56:14.837Z,97.71
2023-02-15T17:01:21.749Z,96.92
2023-02-15T17:06:27.833Z,94.81
2023-02-15T17:11:37.402Z,96.38
2023-02-15T17:16:45.547Z,99.48
2023-02-15T17:21:53.950Z,99.17
2023-02-15T17:27:00.850Z,97.35
2023-02-15T17:32:05.884Z,98.90
2023-02-15T17:37:14.414Z,98.97
2023-02-15T17:42:17.172Z,100.00
2023-02-15T17:47:22.769Z,100.00
2023-02-15T17:52:31.139Z,100.00
2023-02-15T17:57:34.915Z,100.00
2023-02-15T18:02:55.521Z,100.00
2023-02-15T18:08:20.195Z,97.98
2023-02-15T18:13:22.935Z,99.02
2023-02-15T18:18:26.306Z,97.89
2023-02-15T18:23:30.443Z,99.67
2023-02-15T18:28:33.335Z,100.00
2023-02-15T18:33:39.275Z,99.63
2023-02-15T18:38:43.641Z,98.21
2023-02-15T18:43:47.043Z,100.00
2023-02-15T18:48:49.829Z,99.60
2023-02-15T18:53:54.720Z,99.02
2023-02-15T18:58:58.620Z,99.82
2023-02-15T19:04:03.523Z,99.28
2023-02-15T19:09:21.972Z,98.48
2023-02-15T19:14:31.306Z,97.76
2023-02-15T19:19:43.132Z,98.76
2023-02-15T19:24:48.819Z,99.18
2023-02-15T19:29:52.406Z,100.00
2023-02-15T19:34:55.383Z,100.00
2023-02-15T19:39:59.716Z,100.00
2023-02-15T19:45:02.680Z,100.00
2023-02-15T19:50:06.139Z,100.00
2023-02-15T19:55:18.231Z,100.00
2023-02-15T20:00:23.475Z,100.00
2023-02-15T20:05:27.493Z,100.00
2023-02-15T20:10:33.125Z,100.00
2023-02-15T20:15:36.497Z,100.00
2023-02-15T20:20:42.759Z,100.00
2023-02-15T20:25:47.214Z,99.64
2023-02-15T20:30:51.031Z,100.00
2023-02-15T20:35:54.331Z,99.05
2023-02-15T20:41:18.456Z,100.00
2023-02-15T20:46:24.591Z,100.00
2023-02-15T20:51:27.902Z,100.00
2023-02-15T20:56:33.785Z,100.00
2023-02-15T21:01:36.848Z,100.00
2023-02-15T21:06:42.228Z,100.00
2023-02-15T21:11:46.825Z,98.96
2023-02-15T21:16:51.514Z,99.50
2023-02-15T21:21:54.791Z,100.00
2023-02-15T21:27:03.280Z,98.65
2023-02-15T21:32:06.273Z,100.00
2023-02-15T21:37:27.433Z,100.00
2023-02-15T21:42:54.606Z,100.00
2023-02-15T21:47:57.460Z,100.00
2023-02-15T21:53:00.508Z,100.00
2023-02-15T21:58:06.339Z,99.57
2023-02-15T22:03:09.119Z,97.23
2023-02-15T22:08:14.040Z,100.00
2023-02-15T22:13:24.638Z,100.00
2023-02-15T22:18:31.375Z,100.00
2023-02-15T22:23:35.844Z,100.00
2023-02-15T22:28:41.791Z,98.39
2023-02-15T22:33:45.589Z,99.23
2023-02-15T22:38:48.339Z,99.92
2023-02-15T22:43:53.344Z,100.00
2023-02-15T22:48:56.211Z,99.38
2023-02-15T22:53:59.131Z,100.00
2023-02-15T22:59:06.837Z,100.00
2023-02-15T23:04:17.122Z,99.33
2023-02-15T23:09:20.827Z,97.39
2023-02-15T23:14:29.122Z,97.09
2023-02-15T23:19:32.243Z,96.34
2023-02-15T23:24:35.420Z,98.00
2023-02-15T23:29:39.572Z,96.71
2023-02-15T23:34:43.398Z,93.66
2023-02-15T23:40:03.593Z,94.98
2023-02-15T23:45:22.225Z,94.83
2023-02-15T23:50:27.505Z,94.31
2023-02-15T23:55:36.265Z,93.63
